Time;durP1;ratioP1;P1;durP2;ratioP2;P2;SDS_P1;SDS_P2;PMS_P1;PMS_P2;Temp;Humidity;BMP_temperature;BMP_pressure;BME280_temperature;BME280_humidity;BME280_pressure;Samples;Min_cycle;Max_cycle;Signal;HPM_P1;HPM_P2
2023/03/10 00:01:55;;;;;;;;;;;;;;;;;;5028444;28;20272;-82
2023/03/10 00:04:20;;;;;;;;;;;;;;;;;;5029401;28;19921;-83
2023/03/10 00:06:45;;;;;;;;;;;;;;;;;;5026803;28;19917;-82
2023/03/10 00:09:11;;;;;;;;;;;;;;;;;;5029504;28;19921;-82
2023/03/10 00:11:36;;;;;;;;;;;;;;;;;;5028229;28;19920;-82
2023/03/10 00:14:01;;;;;;;;;;;;;;;;;;5029087;28;20418;-82
2023/03/10 00:16:26;;;;;;;;;;;;;;;;;;5026693;28;20004;-82
2023/03/10 00:18:52;;;;;;;;;;;;;;;;;;5026516;28;19996;-82
2023/03/10 00:21:17;;;;;;;;;;;;;;;;;;5030200;28;19913;-82
2023/03/10 00:23:42;;;;;;;;;;;;;;;;;;5029439;28;19921;-82
2023/03/10 00:26:07;;;;;;;;;;;;;;;;;;5036292;28;20284;-82
2023/03/10 00:28:32;;;;;;;;;;;;;;;;;;5028018;28;20271;-82
2023/03/10 00:30:57;;;;;;;;;;;;;;;;;;5029577;28;19913;-82
2023/03/10 00:33:23;;;;;;;;;;;;;;;;;;5033441;28;20331;-82
2023/03/10 00:35:48;;;;;;;;;;;;;;;;;;5032603;28;19921;-82
2023/03/10 00:38:13;;;;;;;;;;;;;;;;;;5029778;28;19917;-82
2023/03/10 00:40:38;;;;;;;;;;;;;;;;;;5034747;28;19916;-82
2023/03/10 00:43:03;;;;;;;;;;;;;;;;;;5028578;28;19920;-81
2023/03/10 00:45:28;;;;;;;;;;;;;;;;;;5032281;28;20487;-82
2023/03/10 00:47:53;;;;;;;;;;;;;;;;;;5028416;28;19917;-82
2023/03/10 00:50:19;;;;;;;;;;;;;;;;;;5030101;28;20377;-82
2023/03/10 00:52:44;;;;;;;;;;;;;;;;;;5032527;28;20003;-82
2023/03/10 00:55:09;;;;;;;;;;;;;;;;;;5025257;28;20394;-81
2023/03/10 00:57:35;;;;;;;;;;;;;;;;;;5016420;28;19925;-82
2023/03/10 01:00:00;;;;;;;;;;;;;;;;;;5015597;28;20031;-82
2023/03/10 01:02:25;;;;;;;;;;;;;;;;;;5024029;28;19913;-81
2023/03/10 01:04:50;;;;;;;;;;;;;;;;;;5024081;28;19913;-82
2023/03/10 01:07:16;;;;;;;;;;;;;;;;;;5025788;28;19925;-81
2023/03/10 01:09:41;;;;;;;;;;;;;;;;;;5021657;28;19967;-82
2023/03/10 01:12:06;;;;;;;;;;;;;;;;;;5019127;28;19921;-82
2023/03/10 01:14:31;;;;;;;;;;;;;;;;;;5000256;28;20040;-82
2023/03/10 01:16:58;;;;;;;;;;;;;;;;;;5021969;28;19925;-82
2023/03/10 01:19:23;;;;;;;;;;;;;;;;;;5032965;28;20387;-82
2023/03/10 01:21:48;;;;;;;;;;;;;;;;;;5025264;28;19919;-82
2023/03/10 01:24:14;;;;;;;;;;;;;;;;;;5025288;28;19917;-82
2023/03/10 01:26:39;;;;;;;;;;;;;;;;;;5034064;28;19944;-82
2023/03/10 01:29:04;;;;;;;;;;;;;;;;;;5032237;28;20024;-82
2023/03/10 01:31:29;;;;;;;;;;;;;;;;;;5030890;28;19982;-82
2023/03/10 01:33:54;;;;;;;;;;;;;;;;;;5028439;28;19917;-82
2023/03/10 01:36:20;;;;;;;;;;;;;;;;;;5028139;28;19921;-82
2023/03/10 01:38:45;;;;;;;;;;;;;;;;;;5031400;28;19913;-82
2023/03/10 01:41:10;;;;;;;;;;;;;;;;;;5027503;28;20019;-82
2023/03/10 01:43:35;;;;;;;;;;;;;;;;;;5038615;28;19920;-82
2023/03/10 01:46:00;;;;;;;;;;;;;;;;;;5036525;28;20004;-82
2023/03/10 01:48:25;;;;;;;;;;;;;;;;;;5035587;28;19944;-82
2023/03/10 01:50:51;;;;;;;;;;;;;;;;;;5032857;28;20359;-82
2023/03/10 01:53:16;;;;;;;;;;;;;;;;;;5012569;28;19988;-83
2023/03/10 01:55:42;;;;;;;;;;;;;;;;;;5035901;28;19916;-82
2023/03/10 01:58:07;;;;;;;;;;;;;;;;;;5027740;28;19913;-83
2023/03/10 02:00:32;;;;;;;;;;;;;;;;;;5027367;28;19959;-83
2023/03/10 02:02:57;;;;;;;;;;;;;;;;;;5027796;28;20382;-83
2023/03/10 02:05:22;;;;;;;;;;;;;;;;;;5037755;28;20382;-83
2023/03/10 02:07:48;;;;;;;;;;;;;;;;;;5030499;28;19921;-83
2023/03/10 02:10:13;;;;;;;;;;;;;;;;;;5031835;28;20408;-83
2023/03/10 02:12:38;;;;;;;;;;;;;;;;;;5029262;28;19913;-83
2023/03/10 02:15:03;;;;;;;;;;;;;;;;;;5032897;28;19920;-83
2023/03/10 02:17:28;;;;;;;;;;;;;;;;;;5027981;28;20436;-83
2023/03/10 02:19:54;;;;;;;;;;;;;;;;;;5034925;28;19924;-83
2023/03/10 02:22:19;;;;;;;;;;;;;;;;;;5028131;28;19961;-83
2023/03/10 02:24:44;;;;;;;;;;;;;;;;;;5025873;28;20357;-82
2023/03/10 02:27:09;;;;;;;;;;;;;;;;;;5026316;28;20508;-83
2023/03/10 02:29:34;;;;;;;;;;;;;;;;;;5033856;28;19962;-83
2023/03/10 02:31:59;;;;;;;;;;;;;;;;;;5026947;28;20421;-83
2023/03/10 02:34:25;;;;;;;;;;;;;;;;;;5029657;28;19917;-83
2023/03/10 02:36:50;;;;;;;;;;;;;;;;;;5032660;28;19939;-83
2023/03/10 02:39:15;;;;;;;;;;;;;;;;;;5029019;28;19913;-83
2023/03/10 02:41:40;;;;;;;;;;;;;;;;;;5031198;28;20322;-83
2023/03/10 02:44:05;;;;;;;;;;;;;;;;;;5026664;28;19920;-83
2023/03/10 02:46:31;;;;;;;;;;;;;;;;;;5035129;28;19917;-83
2023/03/10 02:48:56;;;;;;;;;;;;;;;;;;5033189;28;19919;-83
2023/03/10 02:51:21;;;;;;;;;;;;;;;;;;5030771;28;20410;-83
2023/03/10 02:53:46;;;;;;;;;;;;;;;;;;5029387;28;19968;-83
2023/03/10 02:56:11;;;;;;;;;;;;;;;;;;5037078;28;20287;-83
2023/03/10 02:58:36;;;;;;;;;;;;;;;;;;5027988;28;20932;-84
2023/03/10 03:01:03;;;;;;;;;;;;;;;;;;5027232;28;19924;-84
2023/03/10 03:03:29;;;;;;;;;;;;;;;;;;5027326;28;19924;-84
2023/03/10 03:05:54;;;;;;;;;;;;;;;;;;5032710;28;19917;-83
2023/03/10 03:08:19;;;;;;;;;;;;;;;;;;5010162;28;19921;-84
2023/03/10 03:10:45;;;;;;;;;;;;;;;;;;5027189;28;20192;-84
2023/03/10 03:13:10;;;;;;;;;;;;;;;;;;5030509;28;19917;-84
2023/03/10 03:15:35;;;;;;;;;;;;;;;;;;5029186;28;20379;-84
2023/03/10 03:18:00;;;;;;;;;;;;;;;;;;5034164;28;19913;-84
2023/03/10 03:20:25;;;;;;;;;;;;;;;;;;5028627;28;19929;-84
2023/03/10 03:22:51;;;;;;;;;;;;;;;;;;5037059;28;19915;-84
2023/03/10 03:25:16;;;;;;;;;;;;;;;;;;5031295;28;19941;-84
2023/03/10 03:27:41;;;;;;;;;;;;;;;;;;5029782;28;20003;-84
2023/03/10 03:30:06;;;;;;;;;;;;;;;;;;5026902;28;19913;-84
2023/03/10 03:32:31;;;;;;;;;;;;;;;;;;5032392;28;20267;-84
2023/03/10 03:34:58;;;;;;;;;;;;;;;;;;5029520;28;19962;-84
2023/03/10 03:37:23;;;;;;;;;;;;;;;;;;5026231;28;20011;-84
2023/03/10 03:39:49;;;;;;;;;;;;;;;;;;5031596;28;19992;-84
2023/03/10 03:42:14;;;;;;;;;;;;;;;;;;5032929;28;20371;-84
2023/03/10 03:44:39;;;;;;;;;;;;;;;;;;5024924;28;20113;-84
2023/03/10 03:47:07;;;;;;;;;;;;;;;;;;5031048;28;19920;-84
2023/03/10 03:49:34;;;;;;;;;;;;;;;;;;5029539;28;19919;-84
2023/03/10 03:51:59;;;;;;;;;;;;;;;;;;5025832;28;20331;-84
2023/03/10 03:54:24;;;;;;;;;;;;;;;;;;5025118;28;19928;-84
2023/03/10 03:56:49;;;;;;;;;;;;;;;;;;5030087;28;19963;-84
2023/03/10 03:59:14;;;;;;;;;;;;;;;;;;5025270;28;19921;-84
2023/03/10 04:01:40;;;;;;;;;;;;;;;;;;5030313;28;19930;-84
2023/03/10 04:04:05;;;;;;;;;;;;;;;;;;5022999;28;19980;-84
2023/03/10 04:06:30;;;;;;;;;;;;;;;;;;5013393;28;19924;-84
2023/03/10 04:08:55;;;;;;;;;;;;;;;;;;5026682;28;19944;-85
2023/03/10 04:11:20;;;;;;;;;;;;;;;;;;5029195;28;19924;-85
2023/03/10 04:13:45;;;;;;;;;;;;;;;;;;5028058;28;19944;-85
2023/03/10 04:16:11;;;;;;;;;;;;;;;;;;5023120;28;19921;-84
2023/03/10 04:18:36;;;;;;;;;;;;;;;;;;5028124;28;19925;-85
2023/03/10 04:21:01;;;;;;;;;;;;;;;;;;5030177;28;20456;-85
2023/03/10 04:23:26;;;;;;;;;;;;;;;;;;5028859;28;19913;-85
2023/03/10 04:25:52;;;;;;;;;;;;;;;;;;5026226;28;20333;-85
2023/03/10 04:28:18;;;;;;;;;;;;;;;;;;5005536;28;20487;-85
2023/03/10 04:30:43;;;;;;;;;;;;;;;;;;5028407;28;20371;-85
2023/03/10 04:33:08;;;;;;;;;;;;;;;;;;5028218;28;20051;-85
2023/03/10 04:35:33;;;;;;;;;;;;;;;;;;5026644;28;20017;-85
2023/03/10 04:37:59;;;;;;;;;;;;;;;;;;5028472;28;19933;-84
2023/03/10 04:40:24;;;;;;;;;;;;;;;;;;5034299;28;19921;-85
2023/03/10 04:42:49;;;;;;;;;;;;;;;;;;5024871;28;19917;-85
2023/03/10 04:45:14;;;;;;;;;;;;;;;;;;5025756;28;19916;-85
2023/03/10 04:47:39;;;;;;;;;;;;;;;;;;5028694;28;19975;-85
2023/03/10 04:50:04;;;;;;;;;;;;;;;;;;5031754;28;20409;-85
2023/03/10 04:52:33;;;;;;;;;;;;;;;;;;5031664;28;19920;-86
2023/03/10 04:54:58;;;;;;;;;;;;;;;;;;5032254;28;20008;-86
2023/03/10 04:57:23;;;;;;;;;;;;;;;;;;5026319;28;20003;-86
2023/03/10 04:59:48;;;;;;;;;;;;;;;;;;5024073;28;19924;-86
2023/03/10 05:02:13;;;;;;;;;;;;;;;;;;5014191;28;19916;-86
2023/03/10 05:04:39;;;;;;;;;;;;;;;;;;5031565;28;20259;-86
2023/03/10 05:07:04;;;;;;;;;;;;;;;;;;5031148;28;19990;-86
2023/03/10 05:09:29;;;;;;;;;;;;;;;;;;5025516;28;19956;-86
2023/03/10 05:11:54;;;;;;;;;;;;;;;;;;5013487;28;20008;-86
2023/03/10 05:14:19;;;;;;;;;;;;;;;;;;5037933;28;19968;-87
2023/03/10 05:16:44;;;;;;;;;;;;;;;;;;5035564;28;20394;-86
2023/03/10 05:19:10;;;;;;;;;;;;;;;;;;5029792;28;20449;-86
2023/03/10 05:21:35;;;;;;;;;;;;;;;;;;5035952;28;19912;-86
2023/03/10 05:24:00;;;;;;;;;;;;;;;;;;5034322;28;19913;-87
2023/03/10 05:26:25;;;;;;;;;;;;;;;;;;5031146;28;20408;-87
2023/03/10 05:28:50;;;;;;;;;;;;;;;;;;5028391;28;20353;-86
2023/03/10 05:31:15;;;;;;;;;;;;;;;;;;5036543;28;20452;-87
2023/03/10 05:33:41;;;;;;;;;;;;;;;;;;5029986;28;20021;-87
2023/03/10 05:36:06;;;;;;;;;;;;;;;;;;5032996;28;19921;-87
2023/03/10 05:38:31;;;;;;;;;;;;;;;;;;5030405;28;20375;-88
2023/03/10 05:40:56;;;;;;;;;;;;;;;;;;5029372;28;19913;-88
2023/03/10 05:43:22;;;;;;;;;;;;;;;;;;5036578;28;19921;-87
2023/03/10 05:45:47;;;;;;;;;;;;;;;;;;5026176;28;20359;-87
2023/03/10 05:48:12;;;;;;;;;;;;;;;;;;5031894;28;19971;-87
2023/03/10 05:50:37;;;;;;;;;;;;;;;;;;5032977;28;20403;-87
2023/03/10 05:53:02;;;;;;;;;;;;;;;;;;5030421;28;19913;-87
2023/03/10 05:55:28;;;;;;;;;;;;;;;;;;5030440;28;19914;-87
2023/03/10 05:57:53;;;;;;;;;;;;;;;;;;5028198;28;19923;-86
2023/03/10 06:00:19;;;;;;;;;;;;;;;;;;5029815;28;19916;-87
2023/03/10 06:02:44;;;;;;;;;;;;;;;;;;5029003;28;20445;-85
2023/03/10 06:05:12;;;;;;;;;;;;;;;;;;5030496;28;20496;-84
2023/03/10 06:07:37;;;;;;;;;;;;;;;;;;5024630;28;19918;-83
2023/03/10 06:10:02;;;;;;;;;;;;;;;;;;5030319;28;19920;-83
2023/03/10 06:12:28;;;;;;;;;;;;;;;;;;5028025;28;19917;-83
2023/03/10 06:14:53;;;;;;;;;;;;;;;;;;5029603;28;19913;-83
2023/03/10 06:17:18;;;;;;;;;;;;;;;;;;5028766;28;19916;-83
2023/03/10 06:19:43;;;;;;;;;;;;;;;;;;5033615;28;19984;-83
2023/03/10 06:22:08;;;;;;;;;;;;;;;;;;5009136;28;19921;-83
2023/03/10 06:24:33;;;;;;;;;;;;;;;;;;5024382;28;20248;-84
2023/03/10 06:26:58;;;;;;;;;;;;;;;;;;5035297;28;19913;-83
2023/03/10 06:29:24;;;;;;;;;;;;;;;;;;5029295;28;20412;-83
2023/03/10 06:31:49;;;;;;;;;;;;;;;;;;5026487;28;19987;-83
2023/03/10 06:34:14;;;;;;;;;;;;;;;;;;5025857;28;19921;-84
2023/03/10 06:36:40;;;;;;;;;;;;;;;;;;5036109;28;19924;-84
2023/03/10 06:39:05;;;;;;;;;;;;;;;;;;5025538;28;19917;-83
2023/03/10 06:41:30;;;;;;;;;;;;;;;;;;5033853;28;19919;-84
2023/03/10 06:43:55;;;;;;;;;;;;;;;;;;5024756;28;19917;-84
2023/03/10 06:46:21;;;;;;;;;;;;;;;;;;5027821;28;20310;-84
2023/03/10 06:48:46;;;;;;;;;;;;;;;;;;5027750;28;19917;-84
2023/03/10 06:51:11;;;;;;;;;;;;;;;;;;5026868;28;19920;-84
2023/03/10 06:53:36;;;;;;;;;;;;;;;;;;5031791;28;19920;-84
2023/03/10 06:56:01;;;;;;;;;;;;;;;;;;5025317;28;19922;-84
2023/03/10 06:58:26;;;;;;;;;;;;;;;;;;5023895;28;19917;-84
2023/03/10 07:00:52;;;;;;;;;;;;;;;;;;5025033;28;19917;-85
2023/03/10 07:03:17;;;;;;;;;;;;;;;;;;5022198;28;20044;-84
2023/03/10 07:05:42;;;;;;;;;;;;;;;;;;5023853;28;20201;-85
2023/03/10 07:08:07;;;;;;;;;;;;;;;;;;5024787;28;21121;-85
2023/03/10 07:10:33;;;;;;;;;;;;;;;;;;5021780;28;19975;-85
2023/03/10 07:12:58;;;;;;;;;;;;;;;;;;5020521;28;20043;-84
2023/03/10 07:15:23;;;;;;;;;;;;;;;;;;5028507;28;19921;-85
2023/03/10 07:17:48;;;;;;;;;;;;;;;;;;5024625;28;20426;-85
2023/03/10 07:20:14;;;;;;;;;;;;;;;;;;5025943;28;19964;-85
2023/03/10 07:22:39;;;;;;;;;;;;;;;;;;5026701;28;19973;-85
2023/03/10 07:25:04;;;;;;;;;;;;;;;;;;5022196;28;19913;-85
2023/03/10 07:27:30;;;;;;;;;;;;;;;;;;5027082;28;19916;-85
2023/03/10 07:29:55;;;;;;;;;;;;;;;;;;5031600;28;20395;-85
2023/03/10 07:32:20;;;;;;;;;;;;;;;;;;5029271;28;19921;-84
2023/03/10 07:34:45;;;;;;;;;;;;;;;;;;5025474;28;19957;-83
2023/03/10 07:37:10;;;;;;;;;;;;;;;;;;5020067;28;20152;-83
2023/03/10 07:39:36;;;;;;;;;;;;;;;;;;5030378;28;19992;-83
2023/03/10 07:42:01;;;;;;;;;;;;;;;;;;5035010;28;20280;-84
2023/03/10 07:44:26;;;;;;;;;;;;;;;;;;5031635;28;19924;-83
2023/03/10 07:46:51;;;;;;;;;;;;;;;;;;5028765;28;19927;-83
2023/03/10 07:49:16;;;;;;;;;;;;;;;;;;5019637;28;19921;-83
2023/03/10 07:51:41;;;;;;;;;;;;;;;;;;5022311;28;20239;-83
2023/03/10 07:54:07;;;;;;;;;;;;;;;;;;5025672;28;19909;-83
2023/03/10 07:56:32;;;;;;;;;;;;;;;;;;5025652;28;20184;-82
2023/03/10 07:58:57;;;;;;;;;;;;;;;;;;5027521;28;20107;-82
2023/03/10 08:01:22;;;;;;;;;;;;;;;;;;5027003;28;20696;-82
2023/03/10 08:03:47;;;;;;;;;;;;;;;;;;5029782;28;19920;-82
2023/03/10 08:06:12;;;;;;;;;;;;;;;;;;5027667;28;19917;-82
2023/03/10 08:08:38;;;;;;;;;;;;;;;;;;5031326;28;20465;-84
2023/03/10 08:11:03;;;;;;;;;;;;;;;;;;5028425;28;20138;-82
2023/03/10 08:13:28;;;;;;;;;;;;;;;;;;5031129;28;19928;-81
2023/03/10 08:15:53;;;;;;;;;;;;;;;;;;5004989;28;19917;-81
2023/03/10 08:18:18;;;;;;;;;;;;;;;;;;5029042;28;19916;-81
2023/03/10 08:20:44;;;;;;;;;;;;;;;;;;5026618;28;19912;-81
2023/03/10 08:23:09;;;;;;;;;;;;;;;;;;5025037;28;19913;-81
2023/03/10 08:25:34;;;;;;;;;;;;;;;;;;5029888;28;20453;-81
2023/03/10 08:27:59;;;;;;;;;;;;;;;;;;5028710;28;19919;-81
2023/03/10 08:30:24;;;;;;;;;;;;;;;;;;5027278;28;20131;-81
2023/03/10 08:32:49;;;;;;;;;;;;;;;;;;5024223;28;19921;-81
2023/03/10 08:35:15;;;;;;;;;;;;;;;;;;5026683;28;20436;-81
2023/03/10 08:37:40;;;;;;;;;;;;;;;;;;5030478;28;19972;-81
2023/03/10 08:40:06;;;;;;;;;;;;;;;;;;5024028;28;19963;-81
2023/03/10 08:42:35;;;;;;;;;;;;;;;;;;5025135;28;19924;-81
2023/03/10 08:45:00;;;;;;;;;;;;;;;;;;5022370;28;19975;-81
2023/03/10 08:47:25;;;;;;;;;;;;;;;;;;5022394;28;20564;-81
2023/03/10 08:49:51;;;;;;;;;;;;;;;;;;5030985;28;19917;-81
2023/03/10 08:52:16;;;;;;;;;;;;;;;;;;5033441;28;20281;-81
2023/03/10 08:54:41;;;;;;;;;;;;;;;;;;5028194;28;19925;-82
2023/03/10 08:57:06;;;;;;;;;;;;;;;;;;5020835;28;20283;-81
2023/03/10 08:59:31;;;;;;;;;;;;;;;;;;5027879;28;19928;-81
2023/03/10 09:01:56;;;;;;;;;;;;;;;;;;5027025;28;20330;-81
2023/03/10 09:04:22;;;;;;;;;;;;;;;;;;5022889;28;19999;-82
2023/03/10 09:06:47;;;;;;;;;;;;;;;;;;5029460;28;19928;-81
2023/03/10 09:09:13;;;;;;;;;;;;;;;;;;5025515;28;19913;-81
2023/03/10 09:11:38;;;;;;;;;;;;;;;;;;5028327;28;19913;-81
2023/03/10 09:14:03;;;;;;;;;;;;;;;;;;5019045;28;20558;-82
2023/03/10 09:16:28;;;;;;;;;;;;;;;;;;5025480;28;19941;-82
2023/03/10 09:18:53;;;;;;;;;;;;;;;;;;5013439;28;19917;-82
2023/03/10 09:21:18;;;;;;;;;;;;;;;;;;5029474;28;19971;-82
2023/03/10 09:23:44;;;;;;;;;;;;;;;;;;5022816;28;20168;-82
2023/03/10 09:26:09;;;;;;;;;;;;;;;;;;5033084;28;20007;-82
2023/03/10 09:28:34;;;;;;;;;;;;;;;;;;5027743;28;20314;-82
2023/03/10 09:31:00;;;;;;;;;;;;;;;;;;5031588;28;19913;-82
2023/03/10 09:33:25;;;;;;;;;;;;;;;;;;5034205;28;20270;-82
2023/03/10 09:35:50;;;;;;;;;;;;;;;;;;5031467;28;19913;-82
2023/03/10 09:38:16;;;;;;;;;;;;;;;;;;5025005;28;19924;-82
2023/03/10 09:40:41;;;;;;;;;;;;;;;;;;5018995;28;20322;-82
2023/03/10 09:43:07;;;;;;;;;;;;;;;;;;5024305;28;19917;-82
2023/03/10 09:45:32;;;;;;;;;;;;;;;;;;5023194;28;19921;-82
2023/03/10 09:47:57;;;;;;;;;;;;;;;;;;5023536;28;19928;-83
2023/03/10 09:50:22;;;;;;;;;;;;;;;;;;5025329;28;19917;-83
2023/03/10 09:52:47;;;;;;;;;;;;;;;;;;5025892;28;19921;-83
2023/03/10 09:55:13;;;;;;;;;;;;;;;;;;5019816;28;19924;-83
2023/03/10 09:57:38;;;;;;;;;;;;;;;;;;5030203;28;19921;-83
2023/03/10 10:00:04;;;;;;;;;;;;;;;;;;5030477;28;19913;-83
2023/03/10 10:02:29;;;;;;;;;;;;;;;;;;5027780;28;19921;-83
2023/03/10 10:04:54;;;;;;;;;;;;;;;;;;5028304;28;19921;-83
2023/03/10 10:07:19;;;;;;;;;;;;;;;;;;5030616;28;20120;-83
2023/03/10 10:09:45;;;;;;;;;;;;;;;;;;5028693;28;20015;-83
2023/03/10 10:12:10;;;;;;;;;;;;;;;;;;5026939;28;21189;-83
2023/03/10 10:14:35;;;;;;;;;;;;;;;;;;5032249;28;19971;-83
2023/03/10 10:17:01;;;;;;;;;;;;;;;;;;5028475;28;19974;-83
2023/03/10 10:19:26;;;;;;;;;;;;;;;;;;5027047;28;19928;-83
2023/03/10 10:21:51;;;;;;;;;;;;;;;;;;5029831;28;19923;-83
2023/03/10 10:24:16;;;;;;;;;;;;;;;;;;5028544;28;20333;-83
2023/03/10 10:26:42;;;;;;;;;;;;;;;;;;5028549;28;20128;-84
2023/03/10 10:32:07;;;;;;;;;;;;;;;;;;5027849;28;19934;-84
2023/03/10 10:34:52;;;;;;;;;;;;;;;;;;4990142;28;19921;-84
2023/03/10 10:37:18;;;;;;;;;;;;;;;;;;5033121;28;20311;-84
2023/03/10 10:39:43;;;;;;;;;;;;;;;;;;5029119;28;19921;-84
2023/03/10 10:42:08;;;;;;;;;;;;;;;;;;5027775;28;19921;-84
2023/03/10 10:44:34;;;;;;;;;;;;;;;;;;5017206;28;19979;-84
2023/03/10 10:46:59;;;;;;;;;;;;;;;;;;5035441;28;19917;-85
2023/03/10 10:49:24;;;;;;;;;;;;;;;;;;5031244;28;20323;-85
2023/03/10 10:51:49;;;;;;;;;;;;;;;;;;5026864;28;19913;-85
2023/03/10 10:54:15;;;;;;;;;;;;;;;;;;5027039;28;19921;-85
2023/03/10 10:56:40;;;;;;;;;;;;;;;;;;5028432;28;19931;-85
2023/03/10 10:59:05;;;;;;;;;;;;;;;;;;5027924;28;20389;-85
2023/03/10 11:01:31;;;;;;;;;;;;;;;;;;5035102;28;19913;-85
2023/03/10 11:03:56;;;;;;;;;;;;;;;;;;5032156;28;20286;-85
2023/03/10 11:06:21;;;;;;;;;;;;;;;;;;5033816;28;19927;-85
2023/03/10 11:08:51;;;;;;;;;;;;;;;;;;5027936;28;20205;-86
2023/03/10 11:11:17;;;;;;;;;;;;;;;;;;5028429;28;19960;-85
2023/03/10 11:13:42;;;;;;;;;;;;;;;;;;5026917;28;19941;-86
2023/03/10 11:16:07;;;;;;;;;;;;;;;;;;5028741;28;19944;-85
2023/03/10 11:18:33;;;;;;;;;;;;;;;;;;5039132;28;19917;-85
2023/03/10 11:21:00;;;;;;;;;;;;;;;;;;5004141;28;19924;-86
2023/03/10 11:23:28;;;;;;;;;;;;;;;;;;5030207;28;20367;-86
2023/03/10 11:25:54;;;;;;;;;;;;;;;;;;5037101;28;19912;-86
2023/03/10 11:28:19;;;;;;;;;;;;;;;;;;5034653;28;19921;-86
2023/03/10 11:30:44;;;;;;;;;;;;;;;;;;5035054;28;19939;-86
2023/03/10 11:33:09;;;;;;;;;;;;;;;;;;5030433;28;19964;-85
2023/03/10 11:35:34;;;;;;;;;;;;;;;;;;5028502;28;20366;-86
2023/03/10 11:37:59;;;;;;;;;;;;;;;;;;5030096;28;20007;-86
2023/03/10 11:40:24;;;;;;;;;;;;;;;;;;5031395;28;20421;-87
2023/03/10 11:42:52;;;;;;;;;;;;;;;;;;5032569;28;19916;-87
2023/03/10 11:45:20;;;;;;;;;;;;;;;;;;5027028;28;19999;-86
2023/03/10 11:47:49;;;;;;;;;;;;;;;;;;5029767;28;19928;-87
2023/03/10 11:50:14;;;;;;;;;;;;;;;;;;5030326;28;19964;-86
2023/03/10 11:52:39;;;;;;;;;;;;;;;;;;5029852;28;19909;-87
2023/03/10 11:55:04;;;;;;;;;;;;;;;;;;5030252;28;20386;-87
2023/03/10 11:57:29;;;;;;;;;;;;;;;;;;5029982;28;19996;-87
2023/03/10 11:59:55;;;;;;;;;;;;;;;;;;5029424;28;20375;-87
2023/03/10 12:02:23;;;;;;;;;;;;;;;;;;5030138;28;19954;-88
2023/03/10 12:04:51;;;;;;;;;;;;;;;;;;5028932;28;19963;-87
2023/03/10 12:07:16;;;;;;;;;;;;;;;;;;5092056;22;19925;-84
2023/03/10 12:09:42;;;;;;;;;;;;;;;;;;5049542;28;19912;-82
2023/03/10 12:12:07;;;;;;;;;;;;;;;;;;5048536;28;19927;-82
2023/03/10 12:14:32;;;;;;;;;;;;;;;;;;5050422;28;19917;-82
2023/03/10 12:16:57;;;;;;;;;;;;;;;;;;5029176;28;19975;-84
2023/03/10 12:19:22;;;;;;;;;;;;;;;;;;5049928;28;20113;-85
2023/03/10 12:21:48;;;;;;;;;;;;;;;;;;5054574;28;19916;-83
2023/03/10 12:24:13;;;;;;;;;;;;;;;;;;5048597;28;19921;-82
2023/03/10 12:26:38;;;;;;;;;;;;;;;;;;5050483;28;19916;-82
2023/03/10 12:29:03;;;;;;;;;;;;;;;;;;5050165;28;20516;-84
2023/03/10 12:31:28;;;;;;;;;;;;;;;;;;5051736;28;19962;-84
2023/03/10 12:33:54;;;;;;;;;;;;;;;;;;5049727;28;19984;-83
2023/03/10 12:36:19;;;;;;;;;;;;;;;;;;5046089;28;19913;-84
2023/03/10 12:38:48;;;;;;;;;;;;;;;;;;5050969;28;19916;-83
2023/03/10 12:41:13;;;;;;;;;;;;;;;;;;5050980;28;19927;-84
2023/03/10 12:43:38;;;;;;;;;;;;;;;;;;5048574;28;19921;-84
2023/03/10 12:46:03;;;;;;;;;;;;;;;;;;5049082;28;19960;-85
2023/03/10 12:48:29;;;;;;;;;;;;;;;;;;5046895;28;20767;-83
2023/03/10 12:50:54;;;;;;;;;;;;;;;;;;5046983;28;19913;-84
2023/03/10 12:53:19;;;;;;;;;;;;;;;;;;5045675;28;19999;-83
2023/03/10 12:55:44;;;;;;;;;;;;;;;;;;5045974;28;20035;-83
2023/03/10 12:58:09;;;;;;;;;;;;;;;;;;5047328;28;20374;-85
2023/03/10 13:00:34;;;;;;;;;;;;;;;;;;5045837;28;19965;-83
2023/03/10 13:03:00;;;;;;;;;;;;;;;;;;5045109;28;20436;-84
2023/03/10 13:05:25;;;;;;;;;;;;;;;;;;5033966;28;20427;-84
2023/03/10 13:07:50;;;;;;;;;;;;;;;;;;5027656;28;19921;-84
2023/03/10 13:10:16;;;;;;;;;;;;;;;;;;5045105;28;19916;-84
2023/03/10 13:12:41;;;;;;;;;;;;;;;;;;5044841;28;19917;-84
2023/03/10 13:15:07;;;;;;;;;;;;;;;;;;5045478;28;19956;-84
2023/03/10 13:17:33;;;;;;;;;;;;;;;;;;5044214;28;19977;-84
2023/03/10 13:19:58;;;;;;;;;;;;;;;;;;5045833;28;19917;-84
2023/03/10 13:22:23;;;;;;;;;;;;;;;;;;5048789;28;19929;-84
2023/03/10 13:24:48;;;;;;;;;;;;;;;;;;5045531;28;19921;-84
2023/03/10 13:27:13;;;;;;;;;;;;;;;;;;5044869;28;19967;-84
2023/03/10 13:29:38;;;;;;;;;;;;;;;;;;5045388;28;20142;-85
2023/03/10 13:32:04;;;;;;;;;;;;;;;;;;5047364;28;20206;-85
2023/03/10 13:34:29;;;;;;;;;;;;;;;;;;5050668;28;19991;-84
2023/03/10 13:36:54;;;;;;;;;;;;;;;;;;5046811;28;20465;-85
2023/03/10 13:39:20;;;;;;;;;;;;;;;;;;5048780;28;19960;-84
2023/03/10 13:41:45;;;;;;;;;;;;;;;;;;5052740;28;20344;-84
2023/03/10 13:44:10;;;;;;;;;;;;;;;;;;5050436;28;19921;-85
2023/03/10 13:46:36;;;;;;;;;;;;;;;;;;5052366;28;19962;-85
2023/03/10 13:49:05;;;;;;;;;;;;;;;;;;5060284;28;20352;-85
2023/03/10 13:51:30;;;;;;;;;;;;;;;;;;5065557;28;19916;-85
2023/03/10 13:53:57;;;;;;;;;;;;;;;;;;5072443;28;20449;-85
2023/03/10 13:56:22;;;;;;;;;;;;;;;;;;5053157;28;19963;-85
2023/03/10 13:58:47;;;;;;;;;;;;;;;;;;5053313;28;20011;-85
2023/03/10 14:01:13;;;;;;;;;;;;;;;;;;5053071;28;20438;-85
2023/03/10 14:03:38;;;;;;;;;;;;;;;;;;5055879;28;20007;-84
2023/03/10 14:06:03;;;;;;;;;;;;;;;;;;5055745;28;19921;-85
2023/03/10 14:08:29;;;;;;;;;;;;;;;;;;5052883;28;20136;-85
2023/03/10 14:10:55;;;;;;;;;;;;;;;;;;5041783;28;19916;-84
2023/03/10 14:13:20;;;;;;;;;;;;;;;;;;5052428;28;19974;-86
2023/03/10 14:15:45;;;;;;;;;;;;;;;;;;5055131;28;19912;-85
2023/03/10 14:18:11;;;;;;;;;;;;;;;;;;5051947;28;19927;-85
2023/03/10 14:20:37;;;;;;;;;;;;;;;;;;5051614;28;19940;-84
2023/03/10 14:23:02;;;;;;;;;;;;;;;;;;5053569;28;19916;-85
2023/03/10 14:25:27;;;;;;;;;;;;;;;;;;5055365;28;19913;-85
2023/03/10 14:27:52;;;;;;;;;;;;;;;;;;5054723;28;19932;-85
2023/03/10 14:30:17;;;;;;;;;;;;;;;;;;5052969;28;20656;-84
2023/03/10 14:32:43;;;;;;;;;;;;;;;;;;5032530;28;19917;-84
2023/03/10 14:35:08;;;;;;;;;;;;;;;;;;5054800;28;20263;-84
2023/03/10 14:37:33;;;;;;;;;;;;;;;;;;5050544;28;20007;-84
2023/03/10 14:39:58;;;;;;;;;;;;;;;;;;5068008;28;20297;-85
2023/03/10 14:42:23;;;;;;;;;;;;;;;;;;5072275;28;19913;-84
2023/03/10 14:44:49;;;;;;;;;;;;;;;;;;5072255;28;19912;-85
2023/03/10 14:47:14;;;;;;;;;;;;;;;;;;5071547;28;19908;-85
2023/03/10 14:49:39;;;;;;;;;;;;;;;;;;5071959;28;20003;-85
2023/03/10 14:52:04;;;;;;;;;;;;;;;;;;5071903;28;19916;-84
2023/03/10 14:54:29;;;;;;;;;;;;;;;;;;5071753;28;20345;-85
2023/03/10 14:56:58;;;;;;;;;;;;;;;;;;5054413;28;20369;-84
2023/03/10 14:59:23;;;;;;;;;;;;;;;;;;5051340;28;19909;-85
2023/03/10 15:01:48;;;;;;;;;;;;;;;;;;5051238;28;19920;-85
2023/03/10 15:04:13;;;;;;;;;;;;;;;;;;5050997;28;20453;-85
2023/03/10 15:06:38;;;;;;;;;;;;;;;;;;5050915;28;19924;-85
2023/03/10 15:09:04;;;;;;;;;;;;;;;;;;5051688;28;19915;-85
2023/03/10 15:11:29;;;;;;;;;;;;;;;;;;5050971;28;20271;-85
2023/03/10 15:13:57;;;;;;;;;;;;;;;;;;5051269;28;19928;-85
2023/03/10 15:16:22;;;;;;;;;;;;;;;;;;5050561;28;19909;-85
2023/03/10 15:18:48;;;;;;;;;;;;;;;;;;5051116;28;19916;-84
2023/03/10 15:21:14;;;;;;;;;;;;;;;;;;5051343;28;19947;-86
2023/03/10 15:23:39;;;;;;;;;;;;;;;;;;5051065;28;19909;-83
2023/03/10 15:26:08;;;;;;;;;;;;;;;;;;5049751;28;19909;-85
2023/03/10 15:28:33;;;;;;;;;;;;;;;;;;5032823;28;19909;-85
2023/03/10 15:30:58;;;;;;;;;;;;;;;;;;5050748;28;20408;-85
2023/03/10 15:33:23;;;;;;;;;;;;;;;;;;5050630;28;19909;-87
2023/03/10 15:35:49;;;;;;;;;;;;;;;;;;5032847;28;20358;-85
2023/03/10 15:38:14;;;;;;;;;;;;;;;;;;5050676;28;19913;-85
2023/03/10 15:40:40;;;;;;;;;;;;;;;;;;5050689;28;19936;-85
2023/03/10 15:43:05;;;;;;;;;;;;;;;;;;5033044;28;19909;-85
2023/03/10 15:45:30;;;;;;;;;;;;;;;;;;5050833;28;19915;-84
2023/03/10 15:47:58;;;;;;;;;;;;;;;;;;5050939;28;19921;-85
2023/03/10 15:50:25;;;;;;;;;;;;;;;;;;5050841;28;20000;-85
2023/03/10 15:52:50;;;;;;;;;;;;;;;;;;5050583;28;20091;-85
2023/03/10 15:55:18;;;;;;;;;;;;;;;;;;5050039;28;20401;-84
2023/03/10 15:57:43;;;;;;;;;;;;;;;;;;5050185;28;19920;-85
2023/03/10 16:00:09;;;;;;;;;;;;;;;;;;5050456;28;20000;-84
2023/03/10 16:02:34;;;;;;;;;;;;;;;;;;5032247;28;19980;-85
2023/03/10 16:05:00;;;;;;;;;;;;;;;;;;5050409;28;19909;-85
2023/03/10 16:07:25;;;;;;;;;;;;;;;;;;5032610;28;19921;-84
2023/03/10 16:09:50;;;;;;;;;;;;;;;;;;5050426;28;19916;-85
2023/03/10 16:12:15;;;;;;;;;;;;;;;;;;5050515;28;20382;-85
2023/03/10 16:14:40;;;;;;;;;;;;;;;;;;5050024;28;20279;-86
2023/03/10 16:17:06;;;;;;;;;;;;;;;;;;5049905;28;19920;-85
2023/03/10 16:19:32;;;;;;;;;;;;;;;;;;5050223;28;19959;-85
2023/03/10 16:21:57;;;;;;;;;;;;;;;;;;5049856;28;19909;-85
2023/03/10 16:24:22;;;;;;;;;;;;;;;;;;5049671;28;19916;-85
2023/03/10 16:26:47;;;;;;;;;;;;;;;;;;5049757;28;19940;-85
2023/03/10 16:29:12;;;;;;;;;;;;;;;;;;5050003;28;19916;-84
2023/03/10 16:31:38;;;;;;;;;;;;;;;;;;5049966;28;19916;-84
2023/03/10 16:34:03;;;;;;;;;;;;;;;;;;5031765;28;19913;-87
2023/03/10 16:36:28;;;;;;;;;;;;;;;;;;5049671;28;19999;-85